createdAt,value
2023-03-07T00:00:17.039Z,9.90
2023-03-07T00:02:47.369Z,11.02
2023-03-07T00:05:17.667Z,8.90
2023-03-07T00:07:47.941Z,9.82
2023-03-07T00:10:21.070Z,21.83
2023-03-07T00:12:51.282Z,12.73
2023-03-07T00:15:21.804Z,9.55
2023-03-07T00:17:52.135Z,11.18
2023-03-07T00:20:22.611Z,11.52
2023-03-07T00:22:52.828Z,13.82
2023-03-07T00:25:25.625Z,10.65
2023-03-07T00:27:55.995Z,10.48
2023-03-07T00:30:26.193Z,7.80
2023-03-07T00:32:57.269Z,7.63
2023-03-07T00:35:27.439Z,11.20
2023-03-07T00:37:57.701Z,13.15
2023-03-07T00:40:30.538Z,14.65
2023-03-07T00:43:00.789Z,10.18
2023-03-07T00:45:31.077Z,14.73
2023-03-07T00:48:01.501Z,8.68
2023-03-07T00:50:32.178Z,12.27
2023-03-07T00:53:02.514Z,8.80
2023-03-07T00:55:35.516Z,10.00
2023-03-07T00:58:05.955Z,9.80
2023-03-07T01:00:36.355Z,7.80
2023-03-07T01:03:06.712Z,9.23
2023-03-07T01:05:42.028Z,10.32
2023-03-07T01:08:12.467Z,10.00
2023-03-07T01:10:46.123Z,16.63
2023-03-07T01:13:16.518Z,12.10
2023-03-07T01:15:46.795Z,9.13
2023-03-07T01:18:17.696Z,7.70
2023-03-07T01:20:48.197Z,8.05
2023-03-07T01:23:18.565Z,8.13
2023-03-07T01:25:52.015Z,8.48
2023-03-07T01:28:22.645Z,8.45
2023-03-07T01:31:01.099Z,9.18
2023-03-07T01:33:32.021Z,10.93
2023-03-07T01:36:02.409Z,8.23
2023-03-07T01:38:34.335Z,9.73
2023-03-07T01:41:10.476Z,8.80
2023-03-07T01:43:41.093Z,12.95
2023-03-07T01:46:43.525Z,8.87
2023-03-07T01:49:31.503Z,9.57
2023-03-07T01:52:09.450Z,8.55
2023-03-07T01:54:49.103Z,7.85
2023-03-07T01:57:29.826Z,8.20
2023-03-07T02:00:05.843Z,7.47
2023-03-07T02:02:45.186Z,7.25
2023-03-07T02:05:26.752Z,7.38
2023-03-07T02:07:58.951Z,7.70
2023-03-07T02:10:33.458Z,6.60
2023-03-07T02:13:06.711Z,6.95
2023-03-07T02:15:37.629Z,6.68
2023-03-07T02:18:08.606Z,7.95
2023-03-07T02:20:47.337Z,7.70
2023-03-07T02:23:26.441Z,7.72
2023-03-07T02:26:05.490Z,10.77
2023-03-07T02:28:42.546Z,9.13
2023-03-07T02:31:13.929Z,8.80
2023-03-07T02:33:44.825Z,8.18
2023-03-07T02:36:18.700Z,8.63
2023-03-07T02:39:00.952Z,7.05
2023-03-07T02:41:35.160Z,7.50
2023-03-07T02:44:13.821Z,9.10
2023-03-07T02:46:44.965Z,10.35
2023-03-07T02:49:15.600Z,9.20
2023-03-07T02:51:45.852Z,9.70
2023-03-07T02:54:16.231Z,7.50
2023-03-07T02:56:46.637Z,8.27
2023-03-07T02:59:19.488Z,8.70
2023-03-07T03:01:50.533Z,7.63
2023-03-07T03:04:21.458Z,11.60
2023-03-07T03:06:52.376Z,9.38
2023-03-07T03:09:23.604Z,9.40
2023-03-07T03:11:54.474Z,8.88
2023-03-07T03:14:32.536Z,10.73
2023-03-07T03:17:04.099Z,9.80
2023-03-07T03:19:34.862Z,9.98
2023-03-07T03:22:05.769Z,8.05
2023-03-07T03:24:42.982Z,9.82
2023-03-07T03:27:17.461Z,11.48
2023-03-07T03:29:52.789Z,10.20
2023-03-07T03:32:23.560Z,10.80
2023-03-07T03:34:54.428Z,9.45
2023-03-07T03:37:25.402Z,11.07
2023-03-07T03:39:56.763Z,10.48
2023-03-07T03:42:27.718Z,12.73
2023-03-07T03:45:01.155Z,9.80
2023-03-07T03:47:32.043Z,12.70
2023-03-07T03:50:02.947Z,10.27
2023-03-07T03:52:34.186Z,11.65
2023-03-07T03:55:05.069Z,10.07
2023-03-07T03:57:35.936Z,11.93
2023-03-07T04:00:14.194Z,11.93
2023-03-07T04:02:44.930Z,9.75
2023-03-07T04:05:19.887Z,11.15
2023-03-07T04:07:52.422Z,10.65
2023-03-07T04:10:23.080Z,11.38
2023-03-07T04:12:53.477Z,10.45
2023-03-07T04:15:26.422Z,10.23
2023-03-07T04:17:57.375Z,9.30
2023-03-07T04:20:27.654Z,12.65
2023-03-07T04:22:57.909Z,10.45
2023-03-07T04:25:28.292Z,10.90
2023-03-07T04:27:58.667Z,10.27
2023-03-07T04:30:32.079Z,9.43
2023-03-07T04:33:02.326Z,10.55
2023-03-07T04:35:32.951Z,11.60
2023-03-07T04:38:03.870Z,12.30
2023-03-07T04:40:34.357Z,10.35
2023-03-07T04:43:05.485Z,14.05
2023-03-07T04:45:40.101Z,12.52
2023-03-07T04:48:11.072Z,11.20
2023-03-07T04:50:41.241Z,9.48
2023-03-07T04:53:11.662Z,10.77
2023-03-07T04:55:41.958Z,11.05
2023-03-07T04:58:13.563Z,12.45
2023-03-07T05:00:48.326Z,15.45
2023-03-07T05:03:18.658Z,10.70
2023-03-07T05:05:48.906Z,16.75
2023-03-07T05:08:19.347Z,11.63
2023-03-07T05:10:50.133Z,10.20
2023-03-07T05:13:20.446Z,12.43
2023-03-07T05:15:56.494Z,11.55
2023-03-07T05:18:27.861Z,18.80
2023-03-07T05:21:00.173Z,17.67
2023-03-07T05:23:31.207Z,19.17
2023-03-07T05:26:01.487Z,13.68
2023-03-07T05:28:32.018Z,15.30
2023-03-07T05:31:05.171Z,17.00
2023-03-07T05:33:35.934Z,17.52
2023-03-07T05:36:06.858Z,16.58
2023-03-07T05:38:37.948Z,11.52
2023-03-07T05:41:08.418Z,12.30
2023-03-07T05:43:39.028Z,10.43
2023-03-07T05:46:11.942Z,12.02
2023-03-07T05:48:45.341Z,12.98
2023-03-07T05:51:15.807Z,9.88
2023-03-07T05:53:46.588Z,13.27
2023-03-07T05:56:17.830Z,11.18
2023-03-07T05:58:48.128Z,9.70
2023-03-07T06:01:21.077Z,10.40
2023-03-07T06:03:52.209Z,10.05
2023-03-07T06:06:23.253Z,11.20
2023-03-07T06:08:53.630Z,11.82
2023-03-07T06:11:23.962Z,11.10
2023-03-07T06:13:55.894Z,9.65
2023-03-07T06:16:28.825Z,9.27
2023-03-07T06:19:00.451Z,9.68
2023-03-07T06:21:31.528Z,9.95
2023-03-07T06:24:02.110Z,9.30
2023-03-07T06:26:32.531Z,10.00
2023-03-07T06:29:03.532Z,8.60
2023-03-07T06:31:36.443Z,9.23
2023-03-07T06:34:07.096Z,10.60
2023-03-07T06:36:37.648Z,9.07
2023-03-07T06:39:07.869Z,8.75
2023-03-07T06:41:38.918Z,10.73
2023-03-07T06:44:10.967Z,10.02
2023-03-07T06:46:44.455Z,18.50
2023-03-07T06:49:18.067Z,12.02
2023-03-07T06:51:50.569Z,11.88
2023-03-07T06:54:20.972Z,10.45
2023-03-07T06:56:52.333Z,7.63
2023-03-07T06:59:25.695Z,7.45
2023-03-07T07:01:58.734Z,8.68
2023-03-07T07:04:29.117Z,9.25
2023-03-07T07:06:59.300Z,10.15
2023-03-07T07:09:30.875Z,9.15
2023-03-07T07:12:01.266Z,9.60
2023-03-07T07:14:32.458Z,12.68
2023-03-07T07:17:05.677Z,9.20
2023-03-07T07:19:36.661Z,8.57
2023-03-07T07:22:08.766Z,9.82
2023-03-07T07:24:39.363Z,9.82
2023-03-07T07:27:12.552Z,12.55
2023-03-07T07:29:43.588Z,11.98
2023-03-07T07:32:16.582Z,16.58
2023-03-07T07:34:47.434Z,11.43
2023-03-07T07:37:18.000Z,12.25
2023-03-07T07:39:48.324Z,12.93
2023-03-07T07:42:18.841Z,10.68
2023-03-07T07:45:01.563Z,15.00
2023-03-07T07:47:34.692Z,10.63
2023-03-07T07:50:04.980Z,14.38
2023-03-07T07:52:37.568Z,11.48
2023-03-07T07:55:08.732Z,11.45
2023-03-07T07:57:39.479Z,13.13
2023-03-07T08:00:12.395Z,14.30
2023-03-07T08:02:45.415Z,10.77
2023-03-07T08:05:15.802Z,14.63
2023-03-07T08:07:46.290Z,10.75
2023-03-07T08:10:18.280Z,14.93
2023-03-07T08:12:52.337Z,14.75
2023-03-07T08:15:24.120Z,11.23
2023-03-07T08:17:57.068Z,14.05
2023-03-07T08:20:27.485Z,12.90
2023-03-07T08:22:58.270Z,12.55
2023-03-07T08:25:29.162Z,14.50
2023-03-07T08:27:59.629Z,14.75
2023-03-07T08:30:31.861Z,11.52
2023-03-07T08:33:04.838Z,12.25
2023-03-07T08:35:35.443Z,14.57
2023-03-07T08:38:06.620Z,13.55
2023-03-07T08:40:36.922Z,15.20
2023-03-07T08:43:07.629Z,15.32
2023-03-07T08:45:37.986Z,12.80
2023-03-07T08:48:12.372Z,12.20
2023-03-07T08:50:42.682Z,14.68
2023-03-07T08:53:13.633Z,11.00
2023-03-07T08:55:44.110Z,14.25
2023-03-07T08:58:14.522Z,17.80
2023-03-07T09:00:44.806Z,10.10
2023-03-07T09:03:17.590Z,14.77
2023-03-07T09:05:47.823Z,12.38
2023-03-07T09:08:18.178Z,14.00
2023-03-07T09:10:48.575Z,21.33
2023-03-07T09:13:19.595Z,11.85
2023-03-07T09:15:50.004Z,11.35
2023-03-07T09:18:23.338Z,13.48
2023-03-07T09:20:53.655Z,13.90
2023-03-07T09:23:23.988Z,14.35
2023-03-07T09:25:54.371Z,12.57
2023-03-07T09:28:24.679Z,14.48
2023-03-07T09:30:54.969Z,12.35
2023-03-07T09:33:27.945Z,10.68
2023-03-07T09:35:58.449Z,14.70
2023-03-07T09:38:28.792Z,16.98
2023-03-07T09:41:04.603Z,10.68
2023-03-07T09:43:46.976Z,11.23
2023-03-07T09:46:45.008Z,12.27
2023-03-07T09:49:28.633Z,11.75
2023-03-07T09:52:02.285Z,11.25
2023-03-07T09:54:41.710Z,12.63
2023-03-07T09:57:20.241Z,11.13
2023-03-07T09:59:53.963Z,12.90
2023-03-07T10:02:30.970Z,10.18
2023-03-07T10:05:12.958Z,10.48
2023-03-07T10:07:43.264Z,10.93
2023-03-07T10:10:20.626Z,8.65
2023-03-07T10:13:09.454Z,9.75
2023-03-07T10:15:48.424Z,11.02
2023-03-07T10:18:34.605Z,11.23
2023-03-07T10:21:16.665Z,9.00
2023-03-07T10:24:14.148Z,10.95
2023-03-07T10:26:50.925Z,8.27
2023-03-07T10:29:25.052Z,13.88
2023-03-07T10:31:59.953Z,12.02
2023-03-07T10:34:32.875Z,8.90
2023-03-07T10:37:13.891Z,9.25
2023-03-07T10:39:50.147Z,9.90
2023-03-07T10:42:22.168Z,7.32
2023-03-07T10:44:53.482Z,11.07
2023-03-07T10:47:25.505Z,10.38
2023-03-07T10:49:59.414Z,10.02
2023-03-07T10:52:37.859Z,11.50
2023-03-07T10:55:33.152Z,7.78
2023-03-07T10:58:17.429Z,9.10
2023-03-07T11:00:49.066Z,9.45
2023-03-07T11:03:42.504Z,9.55
2023-03-07T11:06:42.013Z,10.77
2023-03-07T11:09:29.190Z,9.60
2023-03-07T11:12:02.287Z,8.95
2023-03-07T11:14:34.724Z,8.55
2023-03-07T11:17:06.146Z,11.32
2023-03-07T11:19:43.107Z,9.25
2023-03-07T11:22:22.841Z,10.65
2023-03-07T11:25:00.125Z,10.90
2023-03-07T11:27:37.689Z,9.43
2023-03-07T11:30:23.932Z,9.55
2023-03-07T11:33:09.842Z,10.13
2023-03-07T11:36:01.866Z,7.93
2023-03-07T11:38:41.567Z,12.32
2023-03-07T11:41:19.562Z,9.50
2023-03-07T11:44:00.885Z,10.43
2023-03-07T11:46:40.759Z,11.68
2023-03-07T11:49:23.944Z,10.43
2023-03-07T11:52:03.749Z,10.30
2023-03-07T11:54:42.029Z,9.63
2023-03-07T11:57:27.725Z,10.10
2023-03-07T12:00:20.714Z,8.15
2023-03-07T12:03:05.221Z,8.00
2023-03-07T12:05:56.558Z,17.45
2023-03-07T12:08:40.401Z,8.88
2023-03-07T12:11:31.014Z,10.07
2023-03-07T12:14:16.017Z,11.75
2023-03-07T12:16:55.753Z,9.93
2023-03-07T12:19:54.429Z,12.10
2023-03-07T12:22:30.942Z,8.50
2023-03-07T12:25:14.247Z,10.20
2023-03-07T12:27:50.350Z,9.25
2023-03-07T12:30:27.984Z,9.57
2023-03-07T12:32:59.052Z,10.23
2023-03-07T12:35:34.173Z,7.35
2023-03-07T12:38:08.224Z,14.52
2023-03-07T12:40:42.949Z,10.25
2023-03-07T12:43:22.295Z,8.75
2023-03-07T12:46:01.370Z,9.75
2023-03-07T12:48:40.705Z,14.13
2023-03-07T12:51:19.055Z,12.07
2023-03-07T12:53:55.160Z,11.77
2023-03-07T12:56:30.817Z,10.83
2023-03-07T12:59:05.297Z,13.98
2023-03-07T13:01:41.489Z,10.23
2023-03-07T13:04:19.901Z,10.57
2023-03-07T13:06:50.843Z,10.18
2023-03-07T13:09:24.819Z,13.38
2023-03-07T13:12:11.822Z,10.55
2023-03-07T13:14:42.935Z,10.70
2023-03-07T13:17:16.758Z,13.15
2023-03-07T13:19:57.163Z,10.75
2023-03-07T13:23:01.939Z,9.82
2023-03-07T13:25:58.528Z,10.68
2023-03-07T13:28:40.909Z,10.63
2023-03-07T13:31:47.395Z,11.25
2023-03-07T13:34:51.706Z,9.32
2023-03-07T13:38:02.640Z,9.52
2023-03-07T13:40:53.876Z,9.82
2023-03-07T13:44:02.591Z,11.48
2023-03-07T13:46:49.470Z,8.63
2023-03-07T13:49:52.241Z,11.98
2023-03-07T13:52:39.472Z,16.13
2023-03-07T13:55:41.286Z,11.52
2023-03-07T13:58:29.446Z,11.65
2023-03-07T14:01:03.239Z,12.60
2023-03-07T14:03:38.958Z,11.35
2023-03-07T14:06:15.592Z,11.75
2023-03-07T14:08:47.330Z,12.48
2023-03-07T14:11:25.752Z,14.60
2023-03-07T14:14:34.712Z,14.15
2023-03-07T14:17:25.966Z,15.25
2023-03-07T14:20:09.594Z,18.25
2023-03-07T14:22:54.270Z,21.60
2023-03-07T14:25:26.955Z,17.00
2023-03-07T14:28:00.665Z,12.07
2023-03-07T14:30:35.839Z,10.85
2023-03-07T14:33:06.270Z,13.07
2023-03-07T14:35:42.620Z,10.95
2023-03-07T14:38:21.459Z,12.68
2023-03-07T14:41:31.730Z,10.05
2023-03-07T14:44:17.545Z,12.45
2023-03-07T14:47:02.928Z,12.27
2023-03-07T14:49:42.615Z,11.85
2023-03-07T14:52:30.028Z,16.85
2023-03-07T14:55:03.540Z,17.50
2023-03-07T14:57:37.221Z,19.92
2023-03-07T15:00:25.740Z,13.43
2023-03-07T15:03:01.222Z,11.95
2023-03-07T15:05:33.293Z,12.57
2023-03-07T15:08:03.925Z,11.38
2023-03-07T15:10:40.800Z,9.32
2023-03-07T15:13:17.402Z,11.45
2023-03-07T15:15:52.217Z,8.93
2023-03-07T15:18:28.707Z,11.15
2023-03-07T15:21:01.157Z,16.42
2023-03-07T15:23:32.041Z,13.32
2023-03-07T15:26:06.675Z,16.83
2023-03-07T15:28:40.324Z,15.90
2023-03-07T15:31:14.209Z,18.58
2023-03-07T15:33:47.212Z,19.08
2023-03-07T15:36:23.461Z,20.55
2023-03-07T15:38:55.235Z,16.70
2023-03-07T15:41:36.068Z,21.08
2023-03-07T15:44:19.605Z,17.70
2023-03-07T15:46:52.194Z,15.30
2023-03-07T15:49:29.178Z,15.60
2023-03-07T15:54:41.428Z,13.30
2023-03-07T15:57:22.069Z,10.93
2023-03-07T15:59:56.983Z,13.02
2023-03-07T16:02:43.090Z,9.52
2023-03-07T16:05:39.413Z,12.88
2023-03-07T16:08:15.565Z,13.73
2023-03-07T16:10:51.134Z,13.23
2023-03-07T16:13:24.531Z,9.55
2023-03-07T16:16:17.252Z,11.68
2023-03-07T16:18:47.680Z,9.77
2023-03-07T16:21:21.975Z,9.93
2023-03-07T16:23:52.828Z,9.60
2023-03-07T16:26:26.007Z,9.73
2023-03-07T16:28:56.978Z,11.50
2023-03-07T16:31:27.275Z,9.32
2023-03-07T16:33:57.917Z,9.48
2023-03-07T16:36:30.825Z,13.60
2023-03-07T16:39:01.163Z,8.60
2023-03-07T16:41:31.440Z,11.23
2023-03-07T16:44:02.704Z,10.32
2023-03-07T16:46:33.255Z,10.48
2023-03-07T16:49:03.940Z,9.02
2023-03-07T16:51:36.910Z,9.82
2023-03-07T16:54:07.466Z,9.48
2023-03-07T16:56:40.682Z,10.07
2023-03-07T16:59:13.164Z,9.40
2023-03-07T17:01:43.806Z,12.45
2023-03-07T17:04:14.198Z,8.98
2023-03-07T17:06:52.408Z,8.57
2023-03-07T17:09:28.121Z,13.38
2023-03-07T17:11:58.456Z,9.25
2023-03-07T17:14:29.032Z,9.80
2023-03-07T17:16:59.310Z,8.35
2023-03-07T17:19:31.258Z,9.52
2023-03-07T17:22:05.707Z,10.77
2023-03-07T17:24:36.063Z,8.77
2023-03-07T17:27:08.322Z,7.60
2023-03-07T17:29:41.235Z,11.65
2023-03-07T17:32:12.263Z,11.88
2023-03-07T17:34:42.958Z,11.48
2023-03-07T17:37:16.761Z,10.00
2023-03-07T17:39:48.521Z,10.50
2023-03-07T17:42:18.763Z,10.95
2023-03-07T17:44:48.984Z,13.13
2023-03-07T17:47:19.364Z,12.55
2023-03-07T17:49:50.397Z,13.75
2023-03-07T17:52:23.279Z,12.15
2023-03-07T17:54:53.767Z,12.75
2023-03-07T17:57:24.071Z,11.02
2023-03-07T17:59:54.429Z,10.80
2023-03-07T18:02:26.045Z,12.02
2023-03-07T18:04:56.371Z,12.52
2023-03-07T18:07:29.294Z,21.23
2023-03-07T18:10:07.903Z,12.18
2023-03-07T18:12:39.484Z,17.08
2023-03-07T18:15:14.672Z,12.93
2023-03-07T18:17:48.685Z,12.85
2023-03-07T18:20:21.656Z,13.38
2023-03-07T18:22:55.044Z,10.00
2023-03-07T18:25:25.782Z,11.93
2023-03-07T18:27:56.262Z,10.52
2023-03-07T18:30:26.751Z,13.05
2023-03-07T18:32:57.254Z,15.15
2023-03-07T18:35:27.518Z,11.45
2023-03-07T18:38:01.689Z,10.18
2023-03-07T18:40:31.945Z,11.25
2023-03-07T18:43:02.205Z,11.45
2023-03-07T18:45:32.589Z,10.88
2023-03-07T18:48:02.811Z,15.88
2023-03-07T18:50:33.027Z,9.70
2023-03-07T18:53:06.011Z,14.13
2023-03-07T18:55:40.008Z,13.02
2023-03-07T18:58:10.367Z,13.45
2023-03-07T19:00:40.667Z,13.82
2023-03-07T19:03:11.135Z,11.88
2023-03-07T19:05:45.672Z,13.68
2023-03-07T19:08:19.311Z,13.10
2023-03-07T19:10:49.702Z,11.25
2023-03-07T19:13:19.960Z,13.23
2023-03-07T19:15:50.177Z,10.90
2023-03-07T19:18:20.511Z,14.65
2023-03-07T19:20:50.845Z,24.58
2023-03-07T19:23:24.080Z,18.60
2023-03-07T19:25:54.419Z,18.00
2023-03-07T19:28:25.506Z,17.90
2023-03-07T19:30:55.805Z,15.57
2023-03-07T19:33:26.098Z,16.25
2023-03-07T19:36:05.320Z,15.65
2023-03-07T19:38:38.511Z,13.95
2023-03-07T19:41:12.350Z,12.30
2023-03-07T19:43:42.877Z,13.73
2023-03-07T19:46:14.681Z,13.43
2023-03-07T19:48:45.492Z,14.90
2023-03-07T19:51:17.643Z,13.68
2023-03-07T19:53:51.268Z,18.58
2023-03-07T19:56:23.582Z,12.77
2023-03-07T19:58:54.995Z,12.02
2023-03-07T20:01:26.747Z,10.77
2023-03-07T20:03:57.518Z,12.73
2023-03-07T20:06:29.966Z,14.70
2023-03-07T20:09:03.710Z,14.63
2023-03-07T20:11:36.161Z,14.20
2023-03-07T20:14:07.888Z,14.43
2023-03-07T20:16:38.895Z,16.08
2023-03-07T20:19:11.421Z,16.92
2023-03-07T20:21:43.478Z,13.50
2023-03-07T20:24:16.459Z,17.15
2023-03-07T20:26:47.587Z,17.95
2023-03-07T20:29:18.217Z,17.60
2023-03-07T20:31:50.915Z,18.92
2023-03-07T20:34:23.071Z,19.23
2023-03-07T20:36:55.004Z,28.27
2023-03-07T20:39:27.897Z,23.67
2023-03-07T20:41:58.250Z,17.70
2023-03-07T20:44:28.531Z,20.38
2023-03-07T20:46:58.860Z,16.75
2023-03-07T20:49:29.656Z,19.15
2023-03-07T20:51:59.902Z,18.10
2023-03-07T20:54:32.869Z,22.20
2023-03-07T20:57:03.200Z,17.85
2023-03-07T20:59:33.556Z,17.25
2023-03-07T21:02:05.675Z,21.38
2023-03-07T21:04:36.143Z,20.25
2023-03-07T21:07:06.526Z,18.35
2023-03-07T21:09:39.649Z,21.67
2023-03-07T21:12:13.132Z,17.98
2023-03-07T21:14:43.673Z,19.27
2023-03-07T21:17:14.908Z,19.30
2023-03-07T21:19:45.254Z,21.77
2023-03-07T21:22:15.618Z,21.35
2023-03-07T21:24:48.564Z,21.38
2023-03-07T21:27:18.840Z,21.83
2023-03-07T21:29:49.136Z,20.73
2023-03-07T21:32:19.486Z,18.15
2023-03-07T21:34:49.754Z,18.92
2023-03-07T21:37:20.732Z,18.95
2023-03-07T21:39:53.601Z,17.95
2023-03-07T21:42:23.827Z,18.50
2023-03-07T21:44:54.202Z,21.23
2023-03-07T21:47:24.481Z,32.25
2023-03-07T21:49:54.741Z,22.05
2023-03-07T21:52:25.257Z,22.17
2023-03-07T21:54:58.287Z,21.90
2023-03-07T21:57:28.532Z,23.92
2023-03-07T21:59:58.833Z,21.45
2023-03-07T22:02:29.184Z,27.52
2023-03-07T22:04:59.525Z,16.30
2023-03-07T22:07:29.825Z,24.73
2023-03-07T22:10:02.807Z,25.88
2023-03-07T22:12:33.970Z,19.58
2023-03-07T22:15:04.592Z,26.40
2023-03-07T22:17:34.927Z,26.95
2023-03-07T22:20:05.428Z,23.15
2023-03-07T22:22:35.719Z,19.38
2023-03-07T22:25:09.613Z,21.83
2023-03-07T22:27:40.218Z,20.65
2023-03-07T22:30:12.796Z,22.85
2023-03-07T22:32:43.134Z,22.98
2023-03-07T22:35:13.710Z,18.15
2023-03-07T22:37:44.042Z,18.38
2023-03-07T22:40:17.243Z,17.50
2023-03-07T22:42:47.491Z,21.08
2023-03-07T22:45:17.847Z,21.92
2023-03-07T22:47:48.201Z,16.55
2023-03-07T22:50:19.011Z,20.10
2023-03-07T22:52:49.270Z,17.90
2023-03-07T22:55:22.218Z,19.13
2023-03-07T22:57:52.518Z,19.30
2023-03-07T23:00:23.655Z,15.55
2023-03-07T23:02:53.964Z,16.75
2023-03-07T23:05:24.334Z,17.60
2023-03-07T23:07:54.550Z,14.93
2023-03-07T23:10:27.488Z,16.50
2023-03-07T23:12:57.995Z,16.13
2023-03-07T23:15:28.493Z,17.00
2023-03-07T23:17:58.983Z,16.08
2023-03-07T23:20:30.358Z,13.73
2023-03-07T23:23:00.674Z,11.18
2023-03-07T23:25:33.483Z,15.05
2023-03-07T23:28:03.783Z,12.90
2023-03-07T23:30:34.113Z,13.05
2023-03-07T23:33:04.379Z,10.90
2023-03-07T23:35:35.789Z,11.02
2023-03-07T23:38:06.904Z,11.75
2023-03-07T23:40:39.933Z,11.75
2023-03-07T23:43:10.930Z,11.70
2023-03-07T23:45:41.275Z,10.60
2023-03-07T23:48:11.501Z,8.10
2023-03-07T23:50:41.757Z,9.77
2023-03-07T23:53:11.974Z,11.05
2023-03-07T23:55:46.583Z,8.55
2023-03-07T23:58:16.998Z,8.90
